sensor_id;sensor_type;location;lat;lon;timestamp;P1;durP1;ratioP1;P2;durP2;ratioP2
16025;SDS011;8117;52.488;13.460;2022-10-31T00:02:18;15.47;;;8.13;;
16025;SDS011;8117;52.488;13.460;2022-10-31T00:04:49;15.90;;;8.77;;
16025;SDS011;8117;52.488;13.460;2022-10-31T00:07:15;10.83;;;6.77;;
16025;SDS011;8117;52.488;13.460;2022-10-31T00:09:42;15.00;;;9.90;;
16025;SDS011;8117;52.488;13.460;2022-10-31T00:12:24;14.47;;;8.17;;
16025;SDS011;8117;52.488;13.460;2022-10-31T00:14:53;13.23;;;8.93;;
16025;SDS011;8117;52.488;13.460;2022-10-31T00:17:20;16.13;;;8.60;;
16025;SDS011;8117;52.488;13.460;2022-10-31T00:19:48;11.60;;;7.57;;
16025;SDS011;8117;52.488;13.460;2022-10-31T00:22:15;11.77;;;7.00;;
16025;SDS011;8117;52.488;13.460;2022-10-31T00:24:43;11.33;;;8.07;;
16025;SDS011;8117;52.488;13.460;2022-10-31T00:27:11;10.73;;;7.20;;
16025;SDS011;8117;52.488;13.460;2022-10-31T00:29:38;12.40;;;7.07;;
16025;SDS011;8117;52.488;13.460;2022-10-31T00:32:04;18.33;;;8.57;;
16025;SDS011;8117;52.488;13.460;2022-10-31T00:34:31;12.47;;;7.17;;
16025;SDS011;8117;52.488;13.460;2022-10-31T00:36:59;12.73;;;7.47;;
16025;SDS011;8117;52.488;13.460;2022-10-31T00:39:26;12.03;;;8.03;;
16025;SDS011;8117;52.488;13.460;2022-10-31T00:41:52;10.80;;;7.00;;
16025;SDS011;8117;52.488;13.460;2022-10-31T00:44:21;10.90;;;7.50;;
16025;SDS011;8117;52.488;13.460;2022-10-31T00:46:47;12.27;;;5.70;;
16025;SDS011;8117;52.488;13.460;2022-10-31T00:49:15;10.60;;;6.53;;
16025;SDS011;8117;52.488;13.460;2022-10-31T00:51:42;14.40;;;8.10;;
16025;SDS011;8117;52.488;13.460;2022-10-31T00:54:10;10.70;;;7.43;;
16025;SDS011;8117;52.488;13.460;2022-10-31T00:56:38;12.87;;;7.60;;
16025;SDS011;8117;52.488;13.460;2022-10-31T00:59:08;12.17;;;7.50;;
16025;SDS011;8117;52.488;13.460;2022-10-31T01:01:34;10.63;;;7.57;;
16025;SDS011;8117;52.488;13.460;2022-10-31T01:04:01;12.33;;;8.17;;
16025;SDS011;8117;52.488;13.460;2022-10-31T01:06:28;11.30;;;6.70;;
16025;SDS011;8117;52.488;13.460;2022-10-31T01:09:00;11.33;;;6.77;;
16025;SDS011;8117;52.488;13.460;2022-10-31T01:11:35;10.27;;;7.03;;
16025;SDS011;8117;52.488;13.460;2022-10-31T01:14:03;16.43;;;8.57;;
16025;SDS011;8117;52.488;13.460;2022-10-31T01:16:29;13.20;;;8.13;;
16025;SDS011;8117;52.488;13.460;2022-10-31T01:18:58;17.93;;;9.30;;
16025;SDS011;8117;52.488;13.460;2022-10-31T01:21:25;16.23;;;8.13;;
16025;SDS011;8117;52.488;13.460;2022-10-31T01:23:53;11.83;;;6.97;;
16025;SDS011;8117;52.488;13.460;2022-10-31T01:26:22;14.50;;;7.53;;
16025;SDS011;8117;52.488;13.460;2022-10-31T01:28:52;12.00;;;8.20;;
16025;SDS011;8117;52.488;13.460;2022-10-31T01:31:21;11.50;;;8.00;;
16025;SDS011;8117;52.488;13.460;2022-10-31T01:33:49;14.13;;;6.90;;
16025;SDS011;8117;52.488;13.460;2022-10-31T01:36:17;10.93;;;8.20;;
16025;SDS011;8117;52.488;13.460;2022-10-31T01:38:45;11.53;;;7.23;;
16025;SDS011;8117;52.488;13.460;2022-10-31T01:41:13;11.07;;;7.23;;
16025;SDS011;8117;52.488;13.460;2022-10-31T01:43:43;15.00;;;7.30;;
16025;SDS011;8117;52.488;13.460;2022-10-31T01:46:15;13.80;;;8.13;;
16025;SDS011;8117;52.488;13.460;2022-10-31T01:48:45;16.57;;;8.77;;
16025;SDS011;8117;52.488;13.460;2022-10-31T01:51:14;11.47;;;7.60;;
16025;SDS011;8117;52.488;13.460;2022-10-31T01:53:44;11.57;;;7.87;;
16025;SDS011;8117;52.488;13.460;2022-10-31T01:56:13;14.07;;;8.13;;
16025;SDS011;8117;52.488;13.460;2022-10-31T01:58:43;12.17;;;7.00;;
16025;SDS011;8117;52.488;13.460;2022-10-31T02:01:15;11.73;;;6.23;;
16025;SDS011;8117;52.488;13.460;2022-10-31T02:03:46;11.57;;;6.87;;
16025;SDS011;8117;52.488;13.460;2022-10-31T02:06:16;10.70;;;6.73;;
16025;SDS011;8117;52.488;13.460;2022-10-31T02:08:48;8.30;;;5.37;;
16025;SDS011;8117;52.488;13.460;2022-10-31T02:11:24;9.27;;;5.17;;
16025;SDS011;8117;52.488;13.460;2022-10-31T02:13:51;7.97;;;5.57;;
16025;SDS011;8117;52.488;13.460;2022-10-31T02:16:22;10.60;;;6.00;;
16025;SDS011;8117;52.488;13.460;2022-10-31T02:18:54;8.33;;;5.73;;
16025;SDS011;8117;52.488;13.460;2022-10-31T02:21:24;9.93;;;5.20;;
16025;SDS011;8117;52.488;13.460;2022-10-31T02:30:07;8.03;;;5.13;;
16025;SDS011;8117;52.488;13.460;2022-10-31T02:35:33;9.57;;;4.87;;
16025;SDS011;8117;52.488;13.460;2022-10-31T02:38:11;7.57;;;4.73;;
16025;SDS011;8117;52.488;13.460;2022-10-31T02:40:43;5.20;;;4.40;;
16025;SDS011;8117;52.488;13.460;2022-10-31T02:43:16;6.60;;;4.83;;
16025;SDS011;8117;52.488;13.460;2022-10-31T02:45:48;7.53;;;4.73;;
16025;SDS011;8117;52.488;13.460;2022-10-31T02:48:18;6.33;;;4.00;;
16025;SDS011;8117;52.488;13.460;2022-10-31T02:50:46;7.80;;;4.03;;
16025;SDS011;8117;52.488;13.460;2022-10-31T02:53:16;6.63;;;4.40;;
16025;SDS011;8117;52.488;13.460;2022-10-31T02:55:51;7.50;;;5.77;;
16025;SDS011;8117;52.488;13.460;2022-10-31T02:58:23;5.90;;;5.20;;
16025;SDS011;8117;52.488;13.460;2022-10-31T03:01:00;7.20;;;4.57;;
16025;SDS011;8117;52.488;13.460;2022-10-31T03:03:47;6.63;;;5.03;;
16025;SDS011;8117;52.488;13.460;2022-10-31T03:06:29;5.17;;;3.80;;
16025;SDS011;8117;52.488;13.460;2022-10-31T03:09:01;7.03;;;5.23;;
16025;SDS011;8117;52.488;13.460;2022-10-31T03:11:32;5.27;;;3.80;;
16025;SDS011;8117;52.488;13.460;2022-10-31T03:14:05;8.73;;;5.30;;
16025;SDS011;8117;52.488;13.460;2022-10-31T03:16:39;7.40;;;4.67;;
16025;SDS011;8117;52.488;13.460;2022-10-31T03:19:13;8.53;;;4.20;;
16025;SDS011;8117;52.488;13.460;2022-10-31T03:21:42;6.77;;;4.73;;
16025;SDS011;8117;52.488;13.460;2022-10-31T03:24:11;7.37;;;4.80;;
16025;SDS011;8117;52.488;13.460;2022-10-31T03:26:41;7.23;;;4.37;;
16025;SDS011;8117;52.488;13.460;2022-10-31T03:29:11;5.27;;;3.50;;
16025;SDS011;8117;52.488;13.460;2022-10-31T03:31:43;6.93;;;4.27;;
16025;SDS011;8117;52.488;13.460;2022-10-31T03:34:17;5.63;;;3.73;;
16025;SDS011;8117;52.488;13.460;2022-10-31T03:36:46;7.10;;;4.13;;
16025;SDS011;8117;52.488;13.460;2022-10-31T03:39:16;4.93;;;3.87;;
16025;SDS011;8117;52.488;13.460;2022-10-31T03:41:46;7.50;;;4.33;;
16025;SDS011;8117;52.488;13.460;2022-10-31T03:44:16;8.10;;;3.67;;
16025;SDS011;8117;52.488;13.460;2022-10-31T03:46:51;8.43;;;4.67;;
16025;SDS011;8117;52.488;13.460;2022-10-31T03:49:20;4.83;;;3.90;;
16025;SDS011;8117;52.488;13.460;2022-10-31T03:51:48;8.00;;;4.57;;
16025;SDS011;8117;52.488;13.460;2022-10-31T03:54:22;5.20;;;3.47;;
16025;SDS011;8117;52.488;13.460;2022-10-31T03:56:53;4.33;;;3.40;;
16025;SDS011;8117;52.488;13.460;2022-10-31T03:59:23;7.10;;;4.63;;
16025;SDS011;8117;52.488;13.460;2022-10-31T04:01:55;10.40;;;3.73;;
16025;SDS011;8117;52.488;13.460;2022-10-31T04:04:27;6.60;;;4.00;;
16025;SDS011;8117;52.488;13.460;2022-10-31T04:07:05;3.77;;;3.33;;
16025;SDS011;8117;52.488;13.460;2022-10-31T04:09:35;5.43;;;3.27;;
16025;SDS011;8117;52.488;13.460;2022-10-31T04:12:04;5.40;;;3.93;;
16025;SDS011;8117;52.488;13.460;2022-10-31T04:14:54;9.80;;;3.83;;
16025;SDS011;8117;52.488;13.460;2022-10-31T04:17:40;3.20;;;2.90;;
16025;SDS011;8117;52.488;13.460;2022-10-31T06:01:05;5.47;;;3.27;;
16025;SDS011;8117;52.488;13.460;2022-10-31T06:03:45;12.30;;;4.10;;
16025;SDS011;8117;52.488;13.460;2022-10-31T06:06:18;4.70;;;3.20;;
16025;SDS011;8117;52.488;13.460;2022-10-31T06:08:45;5.03;;;3.70;;
16025;SDS011;8117;52.488;13.460;2022-10-31T06:11:12;6.70;;;4.07;;
16025;SDS011;8117;52.488;13.460;2022-10-31T06:13:38;7.47;;;3.70;;
16025;SDS011;8117;52.488;13.460;2022-10-31T06:16:07;4.43;;;3.47;;
16025;SDS011;8117;52.488;13.460;2022-10-31T06:18:33;5.30;;;3.40;;
16025;SDS011;8117;52.488;13.460;2022-10-31T06:21:03;6.50;;;3.27;;
16025;SDS011;8117;52.488;13.460;2022-10-31T06:23:30;7.37;;;3.80;;
16025;SDS011;8117;52.488;13.460;2022-10-31T06:26:01;7.83;;;4.07;;
16025;SDS011;8117;52.488;13.460;2022-10-31T06:28:30;6.43;;;3.27;;
16025;SDS011;8117;52.488;13.460;2022-10-31T06:31:03;4.97;;;3.13;;
16025;SDS011;8117;52.488;13.460;2022-10-31T06:33:34;4.47;;;3.47;;
16025;SDS011;8117;52.488;13.460;2022-10-31T06:36:03;5.53;;;3.03;;
16025;SDS011;8117;52.488;13.460;2022-10-31T06:38:30;6.63;;;3.30;;
16025;SDS011;8117;52.488;13.460;2022-10-31T06:41:02;5.40;;;3.37;;
16025;SDS011;8117;52.488;13.460;2022-10-31T06:43:31;6.13;;;3.70;;
16025;SDS011;8117;52.488;13.460;2022-10-31T06:46:01;4.53;;;3.53;;
16025;SDS011;8117;52.488;13.460;2022-10-31T06:48:30;4.90;;;3.10;;
16025;SDS011;8117;52.488;13.460;2022-10-31T06:51:01;8.40;;;3.83;;
16025;SDS011;8117;52.488;13.460;2022-10-31T06:53:28;3.97;;;2.73;;
16025;SDS011;8117;52.488;13.460;2022-10-31T06:55:55;5.30;;;3.63;;
16025;SDS011;8117;52.488;13.460;2022-10-31T06:58:25;4.73;;;3.43;;
16025;SDS011;8117;52.488;13.460;2022-10-31T07:00:52;5.07;;;3.67;;
16025;SDS011;8117;52.488;13.460;2022-10-31T07:03:19;4.73;;;3.57;;
16025;SDS011;8117;52.488;13.460;2022-10-31T07:05:54;6.40;;;4.10;;
16025;SDS011;8117;52.488;13.460;2022-10-31T07:08:24;6.20;;;4.30;;
16025;SDS011;8117;52.488;13.460;2022-10-31T07:10:54;8.43;;;3.20;;
16025;SDS011;8117;52.488;13.460;2022-10-31T07:13:22;6.37;;;3.50;;
16025;SDS011;8117;52.488;13.460;2022-10-31T07:15:59;4.30;;;3.27;;
16025;SDS011;8117;52.488;13.460;2022-10-31T07:18:27;5.53;;;4.17;;
16025;SDS011;8117;52.488;13.460;2022-10-31T07:20:55;5.53;;;3.43;;
16025;SDS011;8117;52.488;13.460;2022-10-31T07:23:26;9.00;;;4.87;;
16025;SDS011;8117;52.488;13.460;2022-10-31T07:25:54;5.37;;;3.40;;
16025;SDS011;8117;52.488;13.460;2022-10-31T07:28:21;9.20;;;4.07;;
16025;SDS011;8117;52.488;13.460;2022-10-31T07:30:51;6.93;;;3.77;;
16025;SDS011;8117;52.488;13.460;2022-10-31T07:33:21;6.20;;;3.77;;
16025;SDS011;8117;52.488;13.460;2022-10-31T07:35:51;6.73;;;3.70;;
16025;SDS011;8117;52.488;13.460;2022-10-31T07:38:21;5.70;;;3.83;;
16025;SDS011;8117;52.488;13.460;2022-10-31T07:41:02;8.23;;;3.87;;
16025;SDS011;8117;52.488;13.460;2022-10-31T07:43:33;6.97;;;4.37;;
16025;SDS011;8117;52.488;13.460;2022-10-31T07:46:04;15.13;;;3.77;;
16025;SDS011;8117;52.488;13.460;2022-10-31T07:48:33;9.30;;;4.87;;
16025;SDS011;8117;52.488;13.460;2022-10-31T07:51:03;13.63;;;4.23;;
16025;SDS011;8117;52.488;13.460;2022-10-31T07:53:36;8.07;;;4.27;;
16025;SDS011;8117;52.488;13.460;2022-10-31T07:56:19;6.93;;;4.07;;
16025;SDS011;8117;52.488;13.460;2022-10-31T07:58:48;8.37;;;5.10;;
16025;SDS011;8117;52.488;13.460;2022-10-31T08:01:15;7.57;;;4.40;;
16025;SDS011;8117;52.488;13.460;2022-10-31T08:04:06;11.33;;;5.67;;
16025;SDS011;8117;52.488;13.460;2022-10-31T08:06:35;7.40;;;5.30;;
16025;SDS011;8117;52.488;13.460;2022-10-31T08:09:02;6.40;;;4.63;;
16025;SDS011;8117;52.488;13.460;2022-10-31T08:11:39;10.63;;;6.43;;
16025;SDS011;8117;52.488;13.460;2022-10-31T08:14:37;7.60;;;4.90;;
16025;SDS011;8117;52.488;13.460;2022-10-31T08:17:15;6.77;;;5.10;;
16025;SDS011;8117;52.488;13.460;2022-10-31T08:19:45;8.13;;;4.20;;
16025;SDS011;8117;52.488;13.460;2022-10-31T08:22:17;7.57;;;4.80;;
16025;SDS011;8117;52.488;13.460;2022-10-31T08:24:48;7.83;;;4.33;;
16025;SDS011;8117;52.488;13.460;2022-10-31T08:30:16;9.23;;;5.47;;
16025;SDS011;8117;52.488;13.460;2022-10-31T08:35:32;9.40;;;5.70;;
16025;SDS011;8117;52.488;13.460;2022-10-31T08:38:41;8.57;;;6.23;;
16025;SDS011;8117;52.488;13.460;2022-10-31T08:41:07;11.70;;;6.43;;
16025;SDS011;8117;52.488;13.460;2022-10-31T08:46:48;16.00;;;5.93;;
16025;SDS011;8117;52.488;13.460;2022-10-31T08:49:33;15.50;;;7.30;;
16025;SDS011;8117;52.488;13.460;2022-10-31T08:52:09;12.40;;;6.93;;
16025;SDS011;8117;52.488;13.460;2022-10-31T08:54:57;12.90;;;6.57;;
16025;SDS011;8117;52.488;13.460;2022-10-31T08:57:27;9.23;;;6.13;;
16025;SDS011;8117;52.488;13.460;2022-10-31T09:02:44;11.47;;;7.10;;
16025;SDS011;8117;52.488;13.460;2022-10-31T09:05:13;13.77;;;8.37;;
16025;SDS011;8117;52.488;13.460;2022-10-31T09:07:43;11.33;;;6.60;;
16025;SDS011;8117;52.488;13.460;2022-10-31T09:10:10;10.83;;;6.77;;
16025;SDS011;8117;52.488;13.460;2022-10-31T09:12:37;12.23;;;6.57;;
16025;SDS011;8117;52.488;13.460;2022-10-31T09:15:04;10.70;;;6.23;;
16025;SDS011;8117;52.488;13.460;2022-10-31T09:17:35;14.13;;;7.50;;
16025;SDS011;8117;52.488;13.460;2022-10-31T09:20:04;10.70;;;6.60;;
16025;SDS011;8117;52.488;13.460;2022-10-31T09:22:31;10.50;;;4.70;;
16025;SDS011;8117;52.488;13.460;2022-10-31T09:24:58;10.00;;;5.47;;
16025;SDS011;8117;52.488;13.460;2022-10-31T09:27:25;13.13;;;5.70;;
16025;SDS011;8117;52.488;13.460;2022-10-31T09:29:51;9.17;;;5.47;;
16025;SDS011;8117;52.488;13.460;2022-10-31T09:32:19;17.50;;;8.83;;
16025;SDS011;8117;52.488;13.460;2022-10-31T09:34:50;16.27;;;7.10;;
16025;SDS011;8117;52.488;13.460;2022-10-31T09:37:32;14.67;;;7.20;;
16025;SDS011;8117;52.488;13.460;2022-10-31T09:40:00;28.50;;;7.60;;
16025;SDS011;8117;52.488;13.460;2022-10-31T09:45:23;13.80;;;7.57;;
16025;SDS011;8117;52.488;13.460;2022-10-31T09:48:25;8.63;;;5.63;;
16025;SDS011;8117;52.488;13.460;2022-10-31T09:51:00;10.73;;;5.73;;
16025;SDS011;8117;52.488;13.460;2022-10-31T09:53:34;8.93;;;5.60;;
16025;SDS011;8117;52.488;13.460;2022-10-31T09:56:05;13.30;;;5.33;;
16025;SDS011;8117;52.488;13.460;2022-10-31T09:58:45;11.73;;;7.00;;
16025;SDS011;8117;52.488;13.460;2022-10-31T10:01:39;12.30;;;6.97;;
16025;SDS011;8117;52.488;13.460;2022-10-31T10:04:27;12.83;;;6.30;;
16025;SDS011;8117;52.488;13.460;2022-10-31T10:07:01;12.90;;;6.57;;
16025;SDS011;8117;52.488;13.460;2022-10-31T10:09:35;12.97;;;5.97;;
16025;SDS011;8117;52.488;13.460;2022-10-31T10:12:08;10.70;;;6.47;;
16025;SDS011;8117;52.488;13.460;2022-10-31T10:14:43;11.03;;;6.37;;
16025;SDS011;8117;52.488;13.460;2022-10-31T10:17:21;10.80;;;5.93;;
16025;SDS011;8117;52.488;13.460;2022-10-31T10:20:02;13.30;;;6.97;;
16025;SDS011;8117;52.488;13.460;2022-10-31T10:25:50;13.90;;;5.33;;
16025;SDS011;8117;52.488;13.460;2022-10-31T10:29:37;13.77;;;5.80;;
16025;SDS011;8117;52.488;13.460;2022-10-31T10:34:23;10.93;;;5.57;;
16025;SDS011;8117;52.488;13.460;2022-10-31T10:37:05;8.07;;;5.60;;
16025;SDS011;8117;52.488;13.460;2022-10-31T10:40:21;10.17;;;5.43;;
16025;SDS011;8117;52.488;13.460;2022-10-31T10:43:17;11.07;;;6.87;;
16025;SDS011;8117;52.488;13.460;2022-10-31T10:46:40;12.10;;;6.60;;
16025;SDS011;8117;52.488;13.460;2022-10-31T10:49:31;13.57;;;5.53;;
16025;SDS011;8117;52.488;13.460;2022-10-31T10:52:20;10.43;;;6.03;;
16025;SDS011;8117;52.488;13.460;2022-10-31T10:55:01;13.27;;;5.23;;
16025;SDS011;8117;52.488;13.460;2022-10-31T10:57:42;11.13;;;7.23;;
16025;SDS011;8117;52.488;13.460;2022-10-31T11:00:42;12.87;;;7.63;;
16025;SDS011;8117;52.488;13.460;2022-10-31T11:03:13;13.83;;;6.40;;
16025;SDS011;8117;52.488;13.460;2022-10-31T11:05:47;12.27;;;6.40;;
16025;SDS011;8117;52.488;13.460;2022-10-31T11:08:30;11.13;;;6.40;;
16025;SDS011;8117;52.488;13.460;2022-10-31T11:11:43;12.27;;;6.97;;
16025;SDS011;8117;52.488;13.460;2022-10-31T11:14:05;9.07;;;5.90;;
16025;SDS011;8117;52.488;13.460;2022-10-31T11:16:44;12.90;;;6.67;;
16025;SDS011;8117;52.488;13.460;2022-10-31T11:19:32;14.33;;;7.27;;
16025;SDS011;8117;52.488;13.460;2022-10-31T11:22:26;7.50;;;5.30;;
16025;SDS011;8117;52.488;13.460;2022-10-31T11:24:53;12.23;;;6.80;;
16025;SDS011;8117;52.488;13.460;2022-10-31T11:27:25;12.67;;;6.67;;
16025;SDS011;8117;52.488;13.460;2022-10-31T11:30:03;10.90;;;6.07;;
16025;SDS011;8117;52.488;13.460;2022-10-31T11:32:32;9.83;;;5.60;;
16025;SDS011;8117;52.488;13.460;2022-10-31T11:35:00;17.23;;;6.97;;
16025;SDS011;8117;52.488;13.460;2022-10-31T11:37:29;11.97;;;5.80;;
16025;SDS011;8117;52.488;13.460;2022-10-31T11:39:57;8.30;;;6.07;;
16025;SDS011;8117;52.488;13.460;2022-10-31T11:42:26;10.53;;;6.03;;
16025;SDS011;8117;52.488;13.460;2022-10-31T11:45:04;7.00;;;4.83;;
16025;SDS011;8117;52.488;13.460;2022-10-31T11:47:40;12.03;;;6.27;;
16025;SDS011;8117;52.488;13.460;2022-10-31T11:50:09;18.93;;;5.90;;
16025;SDS011;8117;52.488;13.460;2022-10-31T11:52:38;11.57;;;5.30;;
16025;SDS011;8117;52.488;13.460;2022-10-31T11:55:14;10.70;;;6.27;;
16025;SDS011;8117;52.488;13.460;2022-10-31T11:57:44;15.87;;;6.03;;
16025;SDS011;8117;52.488;13.460;2022-10-31T12:00:20;10.20;;;5.33;;
16025;SDS011;8117;52.488;13.460;2022-10-31T12:02:50;12.53;;;6.33;;
16025;SDS011;8117;52.488;13.460;2022-10-31T12:05:17;14.60;;;7.87;;
16025;SDS011;8117;52.488;13.460;2022-10-31T12:07:46;13.20;;;5.90;;
16025;SDS011;8117;52.488;13.460;2022-10-31T12:10:14;12.33;;;5.70;;
16025;SDS011;8117;52.488;13.460;2022-10-31T12:12:53;11.87;;;5.67;;
16025;SDS011;8117;52.488;13.460;2022-10-31T12:15:28;13.47;;;6.33;;
16025;SDS011;8117;52.488;13.460;2022-10-31T12:18:02;12.73;;;6.53;;
16025;SDS011;8117;52.488;13.460;2022-10-31T12:20:46;11.40;;;5.23;;
16025;SDS011;8117;52.488;13.460;2022-10-31T12:23:25;11.53;;;6.43;;
16025;SDS011;8117;52.488;13.460;2022-10-31T12:25:59;12.73;;;6.93;;
16025;SDS011;8117;52.488;13.460;2022-10-31T12:28:57;11.00;;;5.77;;
16025;SDS011;8117;52.488;13.460;2022-10-31T12:32:52;16.17;;;6.67;;
16025;SDS011;8117;52.488;13.460;2022-10-31T12:38:07;9.43;;;5.73;;
16025;SDS011;8117;52.488;13.460;2022-10-31T12:40:53;12.77;;;6.17;;
16025;SDS011;8117;52.488;13.460;2022-10-31T12:43:35;11.50;;;7.20;;
16025;SDS011;8117;52.488;13.460;2022-10-31T12:46:32;9.93;;;5.53;;
16025;SDS011;8117;52.488;13.460;2022-10-31T12:49:16;11.30;;;5.90;;
16025;SDS011;8117;52.488;13.460;2022-10-31T12:51:56;14.57;;;6.50;;
16025;SDS011;8117;52.488;13.460;2022-10-31T12:54:39;14.67;;;7.40;;
16025;SDS011;8117;52.488;13.460;2022-10-31T12:57:17;10.37;;;5.97;;
16025;SDS011;8117;52.488;13.460;2022-10-31T12:59:50;10.50;;;6.10;;
16025;SDS011;8117;52.488;13.460;2022-10-31T13:02:18;12.97;;;7.17;;
16025;SDS011;8117;52.488;13.460;2022-10-31T13:04:51;9.17;;;5.10;;
16025;SDS011;8117;52.488;13.460;2022-10-31T13:07:27;11.73;;;6.27;;
16025;SDS011;8117;52.488;13.460;2022-10-31T13:09:58;12.23;;;6.30;;
16025;SDS011;8117;52.488;13.460;2022-10-31T13:12:26;12.40;;;7.37;;
16025;SDS011;8117;52.488;13.460;2022-10-31T13:14:55;12.87;;;5.70;;
16025;SDS011;8117;52.488;13.460;2022-10-31T13:17:27;13.30;;;6.13;;
16025;SDS011;8117;52.488;13.460;2022-10-31T13:20:15;8.27;;;5.33;;
16025;SDS011;8117;52.488;13.460;2022-10-31T13:25:43;15.77;;;7.47;;
16025;SDS011;8117;52.488;13.460;2022-10-31T13:28:26;17.37;;;6.83;;
16025;SDS011;8117;52.488;13.460;2022-10-31T13:32:07;11.67;;;5.50;;
16025;SDS011;8117;52.488;13.460;2022-10-31T13:33:56;13.57;;;6.90;;
16025;SDS011;8117;52.488;13.460;2022-10-31T13:36:38;12.03;;;6.40;;
16025;SDS011;8117;52.488;13.460;2022-10-31T13:39:30;8.37;;;4.77;;
16025;SDS011;8117;52.488;13.460;2022-10-31T13:42:42;14.50;;;6.27;;
16025;SDS011;8117;52.488;13.460;2022-10-31T13:46:21;10.87;;;5.00;;
16025;SDS011;8117;52.488;13.460;2022-10-31T13:48:49;14.30;;;6.20;;
16025;SDS011;8117;52.488;13.460;2022-10-31T13:51:25;12.40;;;6.77;;
16025;SDS011;8117;52.488;13.460;2022-10-31T13:53:57;13.90;;;7.17;;
16025;SDS011;8117;52.488;13.460;2022-10-31T13:56:26;12.17;;;5.90;;
16025;SDS011;8117;52.488;13.460;2022-10-31T13:59:15;11.40;;;6.13;;
16025;SDS011;8117;52.488;13.460;2022-10-31T14:01:48;10.93;;;5.40;;
16025;SDS011;8117;52.488;13.460;2022-10-31T14:04:33;11.00;;;6.23;;
16025;SDS011;8117;52.488;13.460;2022-10-31T14:07:06;8.40;;;5.10;;
16025;SDS011;8117;52.488;13.460;2022-10-31T14:09:35;11.53;;;5.63;;
16025;SDS011;8117;52.488;13.460;2022-10-31T14:12:05;12.37;;;5.57;;
16025;SDS011;8117;52.488;13.460;2022-10-31T14:14:42;14.53;;;6.57;;
16025;SDS011;8117;52.488;13.460;2022-10-31T14:17:22;11.43;;;6.63;;
16025;SDS011;8117;52.488;13.460;2022-10-31T14:20:03;15.13;;;6.17;;
16025;SDS011;8117;52.488;13.460;2022-10-31T14:22:53;11.03;;;5.77;;
16025;SDS011;8117;52.488;13.460;2022-10-31T14:28:19;10.67;;;5.77;;
16025;SDS011;8117;52.488;13.460;2022-10-31T14:30:51;10.83;;;5.30;;
16025;SDS011;8117;52.488;13.460;2022-10-31T14:33:19;10.07;;;5.73;;
16025;SDS011;8117;52.488;13.460;2022-10-31T14:35:54;12.77;;;6.37;;
16025;SDS011;8117;52.488;13.460;2022-10-31T14:38:35;14.20;;;5.90;;
16025;SDS011;8117;52.488;13.460;2022-10-31T14:41:18;13.63;;;5.80;;
16025;SDS011;8117;52.488;13.460;2022-10-31T14:44:03;9.93;;;4.80;;
16025;SDS011;8117;52.488;13.460;2022-10-31T14:46:51;12.13;;;6.17;;
16025;SDS011;8117;52.488;13.460;2022-10-31T14:49:55;13.33;;;6.93;;
16025;SDS011;8117;52.488;13.460;2022-10-31T14:59:06;10.70;;;5.70;;
16025;SDS011;8117;52.488;13.460;2022-10-31T15:02:57;10.77;;;5.93;;
16025;SDS011;8117;52.488;13.460;2022-10-31T15:05:28;14.03;;;6.57;;
16025;SDS011;8117;52.488;13.460;2022-10-31T15:08:13;14.30;;;6.60;;
16025;SDS011;8117;52.488;13.460;2022-10-31T15:13:50;16.97;;;9.03;;
16025;SDS011;8117;52.488;13.460;2022-10-31T15:16:20;12.43;;;6.73;;
16025;SDS011;8117;52.488;13.460;2022-10-31T15:18:53;13.30;;;8.00;;
16025;SDS011;8117;52.488;13.460;2022-10-31T15:21:23;12.53;;;7.17;;
16025;SDS011;8117;52.488;13.460;2022-10-31T15:23:57;17.23;;;7.93;;
16025;SDS011;8117;52.488;13.460;2022-10-31T15:26:26;12.80;;;7.50;;
16025;SDS011;8117;52.488;13.460;2022-10-31T15:28:59;14.77;;;6.30;;
16025;SDS011;8117;52.488;13.460;2022-10-31T15:31:27;15.80;;;6.57;;
16025;SDS011;8117;52.488;13.460;2022-10-31T15:36:51;17.83;;;7.87;;
16025;SDS011;8117;52.488;13.460;2022-10-31T15:42:14;15.97;;;7.20;;
16025;SDS011;8117;52.488;13.460;2022-10-31T15:44:59;14.03;;;7.77;;
16025;SDS011;8117;52.488;13.460;2022-10-31T15:47:31;12.20;;;6.43;;
16025;SDS011;8117;52.488;13.460;2022-10-31T15:50:03;12.93;;;6.77;;
16025;SDS011;8117;52.488;13.460;2022-10-31T15:52:31;17.73;;;8.27;;
16025;SDS011;8117;52.488;13.460;2022-10-31T15:55:03;16.33;;;6.60;;
16025;SDS011;8117;52.488;13.460;2022-10-31T15:57:31;16.87;;;8.50;;
16025;SDS011;8117;52.488;13.460;2022-10-31T15:59:58;16.50;;;8.37;;
16025;SDS011;8117;52.488;13.460;2022-10-31T16:02:25;11.90;;;7.13;;
16025;SDS011;8117;52.488;13.460;2022-10-31T16:04:54;13.40;;;7.43;;
16025;SDS011;8117;52.488;13.460;2022-10-31T16:07:22;16.60;;;8.70;;
16025;SDS011;8117;52.488;13.460;2022-10-31T16:09:50;13.17;;;6.67;;
16025;SDS011;8117;52.488;13.460;2022-10-31T16:12:29;13.70;;;6.80;;
16025;SDS011;8117;52.488;13.460;2022-10-31T16:14:58;17.83;;;7.67;;
16025;SDS011;8117;52.488;13.460;2022-10-31T16:17:26;16.30;;;8.03;;
16025;SDS011;8117;52.488;13.460;2022-10-31T16:19:54;17.10;;;6.87;;
16025;SDS011;8117;52.488;13.460;2022-10-31T16:22:23;15.63;;;7.23;;
16025;SDS011;8117;52.488;13.460;2022-10-31T16:24:53;12.30;;;6.70;;
16025;SDS011;8117;52.488;13.460;2022-10-31T16:27:26;16.23;;;6.87;;
16025;SDS011;8117;52.488;13.460;2022-10-31T16:29:55;18.33;;;7.63;;
16025;SDS011;8117;52.488;13.460;2022-10-31T16:32:23;21.70;;;8.43;;
16025;SDS011;8117;52.488;13.460;2022-10-31T16:34:57;13.47;;;7.60;;
16025;SDS011;8117;52.488;13.460;2022-10-31T16:37:26;22.13;;;8.20;;
16025;SDS011;8117;52.488;13.460;2022-10-31T16:39:55;15.00;;;6.97;;
16025;SDS011;8117;52.488;13.460;2022-10-31T16:42:27;19.27;;;6.73;;
16025;SDS011;8117;52.488;13.460;2022-10-31T16:44:54;13.43;;;7.60;;
16025;SDS011;8117;52.488;13.460;2022-10-31T16:47:22;19.50;;;7.87;;
16025;SDS011;8117;52.488;13.460;2022-10-31T16:49:49;17.03;;;8.27;;
16025;SDS011;8117;52.488;13.460;2022-10-31T16:52:16;16.03;;;7.80;;
16025;SDS011;8117;52.488;13.460;2022-10-31T16:54:45;17.60;;;7.33;;
16025;SDS011;8117;52.488;13.460;2022-10-31T16:57:34;17.33;;;7.50;;
16025;SDS011;8117;52.488;13.460;2022-10-31T17:00:02;15.93;;;7.03;;
16025;SDS011;8117;52.488;13.460;2022-10-31T17:02:38;13.10;;;7.57;;
16025;SDS011;8117;52.488;13.460;2022-10-31T17:05:07;13.90;;;8.30;;
16025;SDS011;8117;52.488;13.460;2022-10-31T17:07:38;15.47;;;9.07;;
16025;SDS011;8117;52.488;13.460;2022-10-31T17:10:07;15.37;;;6.50;;
16025;SDS011;8117;52.488;13.460;2022-10-31T17:12:40;14.17;;;6.57;;
16025;SDS011;8117;52.488;13.460;2022-10-31T17:15:14;14.03;;;7.23;;
16025;SDS011;8117;52.488;13.460;2022-10-31T17:17:48;14.67;;;7.37;;
16025;SDS011;8117;52.488;13.460;2022-10-31T17:22:58;13.13;;;6.53;;
16025;SDS011;8117;52.488;13.460;2022-10-31T17:25:31;12.70;;;5.43;;
16025;SDS011;8117;52.488;13.460;2022-10-31T17:28:05;13.00;;;7.93;;
16025;SDS011;8117;52.488;13.460;2022-10-31T17:30:32;16.73;;;7.10;;
16025;SDS011;8117;52.488;13.460;2022-10-31T17:33:02;14.83;;;6.83;;
16025;SDS011;8117;52.488;13.460;2022-10-31T17:35:30;13.20;;;6.97;;
16025;SDS011;8117;52.488;13.460;2022-10-31T17:38:01;17.63;;;8.07;;
16025;SDS011;8117;52.488;13.460;2022-10-31T17:40:28;18.13;;;7.60;;
16025;SDS011;8117;52.488;13.460;2022-10-31T17:42:55;16.30;;;7.07;;
16025;SDS011;8117;52.488;13.460;2022-10-31T17:45:25;13.77;;;7.07;;
16025;SDS011;8117;52.488;13.460;2022-10-31T17:47:53;11.47;;;7.60;;
16025;SDS011;8117;52.488;13.460;2022-10-31T17:50:20;13.20;;;6.40;;
16025;SDS011;8117;52.488;13.460;2022-10-31T17:56:17;17.60;;;8.80;;
16025;SDS011;8117;52.488;13.460;2022-10-31T17:58:48;16.50;;;8.00;;
16025;SDS011;8117;52.488;13.460;2022-10-31T18:01:19;22.13;;;10.10;;